createdAt,value
2019-03-19T00:00:55.574Z,26.40
2019-03-19T00:03:26.000Z,23.77
2019-03-19T00:05:56.306Z,25.83
2019-03-19T00:08:26.671Z,25.80
2019-03-19T00:10:57.315Z,26.33
2019-03-19T00:13:27.706Z,27.90
2019-03-19T00:15:58.104Z,27.07
2019-03-19T00:18:28.538Z,27.60
2019-03-19T00:20:58.914Z,33.73
2019-03-19T00:23:29.852Z,24.97
2019-03-19T00:26:00.252Z,24.40
2019-03-19T00:28:30.600Z,26.83
2019-03-19T00:31:01.032Z,23.80
2019-03-19T00:33:31.384Z,26.43
2019-03-19T00:36:01.821Z,26.37
2019-03-19T00:38:34.212Z,27.43
2019-03-19T00:41:04.577Z,26.77
2019-03-19T00:43:34.952Z,28.83
2019-03-19T00:46:05.351Z,23.80
2019-03-19T00:48:35.696Z,22.53
2019-03-19T00:51:06.102Z,24.67
2019-03-19T00:53:36.476Z,23.43
2019-03-19T00:56:06.834Z,23.93
2019-03-19T00:58:37.202Z,22.43
2019-03-19T01:01:08.708Z,24.67
2019-03-19T01:03:39.548Z,22.93
2019-03-19T01:06:09.946Z,28.27
2019-03-19T01:08:40.274Z,24.73
2019-03-19T01:11:10.704Z,25.70
2019-03-19T01:13:41.130Z,27.97
2019-03-19T01:16:11.534Z,27.87
2019-03-19T01:18:41.961Z,24.23
2019-03-19T01:21:12.339Z,22.30
2019-03-19T01:23:42.680Z,25.33
2019-03-19T01:26:13.065Z,29.33
2019-03-19T01:28:43.539Z,26.17
2019-03-19T01:31:13.884Z,26.57
2019-03-19T01:33:44.255Z,18.97
2019-03-19T01:36:14.680Z,22.83
2019-03-19T01:38:45.130Z,23.77
2019-03-19T01:41:15.504Z,23.17
2019-03-19T01:43:45.840Z,29.97
2019-03-19T01:46:16.226Z,22.27
2019-03-19T01:48:46.536Z,37.70
2019-03-19T01:51:16.976Z,22.47
2019-03-19T01:53:47.362Z,23.53
2019-03-19T01:56:18.343Z,21.63
2019-03-19T01:58:50.383Z,22.73
2019-03-19T02:01:20.790Z,19.73
2019-03-19T02:03:51.258Z,25.60
2019-03-19T02:06:21.683Z,21.60
2019-03-19T02:08:52.056Z,21.40
2019-03-19T02:11:22.404Z,27.80
2019-03-19T02:13:52.824Z,23.90
2019-03-19T02:16:23.181Z,27.27
2019-03-19T02:18:53.744Z,21.77
2019-03-19T02:21:24.211Z,22.00
2019-03-19T02:23:54.624Z,21.40
2019-03-19T02:26:25.120Z,25.17
2019-03-19T02:28:55.858Z,23.33
2019-03-19T02:31:26.224Z,23.60
2019-03-19T02:33:56.616Z,23.53
2019-03-19T02:36:27.124Z,21.67
2019-03-19T02:38:57.714Z,24.10
2019-03-19T02:41:28.026Z,23.03
2019-03-19T02:43:58.395Z,22.90
2019-03-19T02:46:28.755Z,31.77
2019-03-19T02:48:59.108Z,19.97
2019-03-19T02:51:29.534Z,22.43
2019-03-19T02:53:59.915Z,19.67
2019-03-19T02:56:33.017Z,16.50
2019-03-19T02:59:02.236Z,23.30
2019-03-19T03:01:34.280Z,25.00
2019-03-19T03:04:04.591Z,17.07
2019-03-19T03:06:35.287Z,23.30
2019-03-19T03:09:07.407Z,23.93
2019-03-19T03:11:37.763Z,23.03
2019-03-19T03:14:08.127Z,23.83
2019-03-19T03:16:38.492Z,20.77
2019-03-19T03:19:08.830Z,28.83
2019-03-19T03:21:39.171Z,24.57
2019-03-19T03:24:09.514Z,20.40
2019-03-19T03:26:47.776Z,21.63
2019-03-19T03:29:11.863Z,24.40
2019-03-19T03:31:42.229Z,30.80
2019-03-19T03:34:12.743Z,20.60
2019-03-19T03:36:43.083Z,18.00
2019-03-19T03:39:13.720Z,25.10
2019-03-19T03:41:45.047Z,22.00
2019-03-19T03:44:15.352Z,16.00
2019-03-19T03:46:45.705Z,20.93
2019-03-19T03:49:18.039Z,19.23
2019-03-19T03:51:48.455Z,25.13
2019-03-19T03:54:18.847Z,19.63
2019-03-19T03:57:01.176Z,24.67
2019-03-19T03:59:21.979Z,19.80
2019-03-19T04:01:52.332Z,22.03
2019-03-19T04:04:22.700Z,20.60
2019-03-19T04:06:53.047Z,20.47
2019-03-19T04:09:23.381Z,24.57
2019-03-19T04:11:53.809Z,18.20
2019-03-19T04:14:24.228Z,17.27
2019-03-19T04:16:54.638Z,20.03
2019-03-19T04:19:25.004Z,23.70
2019-03-19T04:21:55.324Z,17.53
2019-03-19T04:24:25.876Z,17.73
2019-03-19T04:26:56.239Z,18.97
2019-03-19T04:29:26.604Z,16.77
2019-03-19T04:31:56.960Z,21.00
2019-03-19T04:34:27.308Z,17.27
2019-03-19T04:36:58.913Z,22.80
2019-03-19T04:39:29.531Z,17.67
2019-03-19T04:41:59.889Z,18.13
2019-03-19T04:44:30.242Z,28.17
2019-03-19T04:47:00.553Z,23.90
2019-03-19T04:49:31.089Z,22.23
2019-03-19T04:52:01.442Z,16.03
2019-03-19T04:54:31.859Z,19.57
2019-03-19T04:57:02.161Z,20.20
2019-03-19T04:59:33.732Z,21.90
2019-03-19T05:02:03.967Z,23.30
2019-03-19T05:04:34.353Z,21.10
2019-03-19T05:07:04.665Z,19.33
2019-03-19T05:09:35.037Z,23.27
2019-03-19T05:12:05.461Z,21.27
2019-03-19T05:14:35.920Z,23.93
2019-03-19T05:17:06.407Z,19.43
2019-03-19T05:19:36.783Z,19.67
2019-03-19T05:22:07.124Z,21.60
2019-03-19T05:24:37.515Z,22.30
2019-03-19T05:27:08.736Z,16.00
2019-03-19T05:29:39.815Z,20.97
2019-03-19T05:32:10.309Z,27.67
2019-03-19T05:34:40.696Z,16.63
2019-03-19T05:37:11.371Z,16.10
2019-03-19T05:39:41.773Z,37.97
2019-03-19T05:42:12.109Z,15.23
2019-03-19T05:44:43.919Z,19.50
2019-03-19T05:47:14.293Z,24.53
2019-03-19T05:49:45.699Z,19.07
2019-03-19T05:52:16.056Z,21.23
2019-03-19T05:54:46.917Z,19.57
2019-03-19T05:57:17.627Z,31.17
2019-03-19T05:59:48.200Z,20.57
2019-03-19T06:02:19.029Z,16.33
2019-03-19T06:04:50.025Z,14.93
2019-03-19T06:07:20.511Z,20.07
2019-03-19T06:09:51.627Z,22.63
2019-03-19T06:12:22.787Z,20.73
2019-03-19T06:14:53.251Z,19.63
2019-03-19T06:17:23.891Z,16.93
2019-03-19T06:19:54.272Z,19.60
2019-03-19T06:22:24.638Z,16.80
2019-03-19T06:24:55.030Z,19.20
2019-03-19T06:27:25.463Z,19.53
2019-03-19T06:29:55.859Z,20.53
2019-03-19T06:32:26.260Z,16.97
2019-03-19T06:34:56.629Z,17.63
2019-03-19T06:37:27.387Z,14.37
2019-03-19T06:39:57.753Z,19.07
2019-03-19T06:42:28.298Z,15.13
2019-03-19T06:44:58.891Z,23.30
2019-03-19T06:47:29.251Z,21.40
2019-03-19T06:49:59.657Z,15.77
2019-03-19T06:52:30.053Z,22.10
2019-03-19T06:55:00.516Z,11.63
2019-03-19T06:57:38.893Z,27.90
2019-03-19T07:00:03.580Z,25.03
2019-03-19T07:02:33.942Z,22.13
2019-03-19T07:05:05.577Z,23.13
2019-03-19T07:07:35.901Z,24.20
2019-03-19T07:10:07.191Z,16.47
2019-03-19T07:12:37.591Z,25.20
2019-03-19T07:15:09.592Z,17.40
2019-03-19T07:17:39.935Z,19.40
2019-03-19T07:20:11.941Z,23.57
2019-03-19T07:22:44.162Z,22.67
2019-03-19T07:25:14.707Z,22.37
2019-03-19T07:27:45.082Z,16.60
2019-03-19T07:30:17.376Z,19.20
2019-03-19T07:32:47.793Z,25.73
2019-03-19T07:35:18.162Z,23.27
2019-03-19T07:37:48.463Z,23.07
2019-03-19T07:40:19.739Z,30.97
2019-03-19T07:42:50.023Z,20.83
2019-03-19T07:45:21.491Z,15.67
2019-03-19T07:47:51.948Z,21.43
2019-03-19T07:50:22.296Z,26.43
2019-03-19T07:52:52.643Z,17.50
2019-03-19T07:55:23.022Z,23.83
2019-03-19T07:57:53.391Z,29.43
2019-03-19T08:00:24.047Z,49.20
2019-03-19T08:02:54.613Z,26.00
2019-03-19T08:05:33.067Z,21.00
2019-03-19T08:07:56.989Z,26.30
2019-03-19T08:10:27.360Z,20.60
2019-03-19T08:12:57.781Z,28.70
2019-03-19T08:15:28.066Z,18.27
2019-03-19T08:17:58.489Z,19.73
2019-03-19T08:20:33.394Z,19.53
2019-03-19T08:23:03.841Z,20.63
2019-03-19T08:25:34.228Z,18.20
2019-03-19T08:28:05.907Z,17.43
2019-03-19T08:30:36.487Z,16.03
2019-03-19T08:33:07.358Z,19.73
2019-03-19T08:35:38.119Z,14.40
2019-03-19T08:38:09.074Z,16.63
2019-03-19T08:40:39.897Z,12.37
2019-03-19T08:43:10.301Z,18.77
2019-03-19T08:45:40.840Z,18.77
2019-03-19T08:48:11.304Z,20.07
2019-03-19T08:50:41.918Z,19.13
2019-03-19T08:53:12.431Z,15.77
2019-03-19T08:55:42.864Z,19.90
2019-03-19T08:58:13.302Z,18.13
2019-03-19T09:00:43.792Z,10.40
2019-03-19T09:03:14.418Z,19.03
2019-03-19T09:05:44.808Z,17.20
2019-03-19T09:08:15.337Z,19.17
2019-03-19T09:10:45.705Z,29.43
2019-03-19T09:13:16.324Z,14.63
2019-03-19T09:15:47.374Z,22.70
2019-03-19T09:18:19.510Z,17.40
2019-03-19T09:20:50.660Z,22.80
2019-03-19T09:23:21.087Z,17.60
2019-03-19T09:25:51.550Z,19.57
2019-03-19T09:28:21.937Z,15.77
2019-03-19T09:30:53.447Z,19.40
2019-03-19T09:33:24.069Z,17.90
2019-03-19T09:35:54.408Z,116.97
2019-03-19T09:38:24.905Z,20.00
2019-03-19T09:40:57.568Z,22.27
2019-03-19T09:43:28.172Z,16.67
2019-03-19T09:45:58.497Z,22.73
2019-03-19T09:48:29.004Z,18.03
2019-03-19T09:50:59.744Z,17.37
2019-03-19T09:53:30.112Z,24.33
2019-03-19T09:56:02.822Z,14.23
2019-03-19T09:58:33.283Z,12.97
2019-03-19T10:01:04.003Z,22.47
2019-03-19T10:03:34.387Z,37.90
2019-03-19T10:06:13.908Z,23.03
2019-03-19T10:08:37.359Z,18.00
2019-03-19T10:11:07.831Z,19.93
2019-03-19T10:13:38.383Z,18.13
2019-03-19T10:16:08.816Z,23.30
2019-03-19T10:18:39.197Z,24.40
2019-03-19T10:21:09.603Z,19.17
2019-03-19T10:23:40.314Z,27.10
2019-03-19T10:26:11.133Z,14.43
2019-03-19T10:28:41.738Z,23.60
2019-03-19T10:31:12.346Z,20.80
2019-03-19T10:33:42.762Z,22.40
2019-03-19T10:36:13.345Z,15.90
2019-03-19T10:38:43.792Z,20.67
2019-03-19T10:41:14.124Z,16.30
2019-03-19T10:43:45.005Z,19.93
2019-03-19T10:46:15.736Z,25.27
2019-03-19T10:48:46.325Z,17.37
2019-03-19T10:51:17.667Z,15.90
2019-03-19T10:53:48.251Z,17.90
2019-03-19T10:56:18.660Z,16.43
2019-03-19T10:58:49.363Z,12.27
2019-03-19T11:01:19.717Z,16.90
2019-03-19T11:03:50.252Z,16.90
2019-03-19T11:06:22.082Z,19.03
2019-03-19T11:08:54.261Z,20.73
2019-03-19T11:11:24.798Z,18.10
2019-03-19T11:13:57.116Z,14.67
2019-03-19T11:16:27.472Z,15.60
2019-03-19T11:18:58.183Z,13.90
2019-03-19T11:21:31.373Z,17.53
2019-03-19T11:24:03.230Z,21.07
2019-03-19T11:26:35.908Z,21.73
2019-03-19T11:29:06.322Z,17.57
2019-03-19T11:31:36.663Z,12.70
2019-03-19T11:34:08.326Z,16.47
2019-03-19T11:36:39.179Z,20.90
2019-03-19T11:39:11.915Z,18.83
2019-03-19T11:41:42.363Z,19.60
2019-03-19T11:44:13.060Z,16.17
2019-03-19T11:46:45.315Z,18.00
2019-03-19T11:49:15.750Z,19.60
2019-03-19T11:51:46.198Z,23.27
2019-03-19T11:54:16.768Z,17.70
2019-03-19T11:56:47.694Z,19.63
2019-03-19T11:59:18.372Z,22.57
2019-03-19T12:01:49.832Z,28.17
2019-03-19T12:04:20.464Z,22.23
2019-03-19T12:06:51.032Z,22.47
2019-03-19T12:09:21.425Z,22.73
2019-03-19T12:11:52.369Z,22.67
2019-03-19T12:14:22.809Z,15.93
2019-03-19T12:16:53.376Z,24.10
2019-03-19T12:19:23.962Z,20.03
2019-03-19T12:21:54.420Z,20.83
2019-03-19T12:24:24.856Z,24.80
2019-03-19T12:26:57.056Z,20.40
2019-03-19T12:29:27.720Z,30.07
2019-03-19T12:31:58.120Z,24.87
2019-03-19T12:34:28.541Z,33.87
2019-03-19T12:36:59.176Z,25.23
2019-03-19T12:39:29.874Z,32.70
2019-03-19T12:42:00.447Z,31.20
2019-03-19T12:44:31.523Z,23.30
2019-03-19T12:47:01.764Z,29.43
2019-03-19T12:49:32.160Z,28.90
2019-03-19T12:52:02.658Z,24.60
2019-03-19T12:54:33.023Z,25.30
2019-03-19T12:57:03.374Z,23.50
2019-03-19T12:59:33.830Z,23.87
2019-03-19T13:02:04.298Z,26.13
2019-03-19T13:04:34.703Z,23.77
2019-03-19T13:07:05.059Z,23.50
2019-03-19T13:09:35.452Z,30.10
2019-03-19T13:12:05.808Z,23.40
2019-03-19T13:14:36.368Z,19.27
2019-03-19T13:17:08.680Z,21.63
2019-03-19T13:19:39.000Z,21.43
2019-03-19T13:22:09.314Z,23.33
2019-03-19T13:24:39.815Z,33.13
2019-03-19T13:27:10.566Z,16.53
2019-03-19T13:29:40.973Z,21.53
2019-03-19T13:32:11.405Z,22.00
2019-03-19T13:34:41.792Z,29.83
2019-03-19T13:37:12.536Z,23.87
2019-03-19T13:39:43.037Z,22.77
2019-03-19T13:42:13.440Z,25.90
2019-03-19T13:44:43.954Z,24.33
2019-03-19T13:47:14.590Z,25.63
2019-03-19T13:49:44.967Z,21.17
2019-03-19T13:52:15.430Z,20.13
2019-03-19T13:54:45.842Z,20.13
2019-03-19T13:57:16.252Z,24.10
2019-03-19T13:59:46.614Z,26.47
2019-03-19T14:02:17.174Z,17.50
2019-03-19T14:04:47.524Z,28.83
2019-03-19T14:07:17.906Z,26.70
2019-03-19T14:09:48.348Z,26.03
2019-03-19T14:12:19.114Z,23.63
2019-03-19T14:14:49.581Z,34.40
2019-03-19T14:17:21.802Z,32.17
2019-03-19T14:19:53.390Z,27.00
2019-03-19T14:22:23.823Z,31.77
2019-03-19T14:24:54.586Z,21.93
2019-03-19T14:27:24.984Z,32.73
2019-03-19T14:29:55.429Z,32.57
2019-03-19T14:32:26.107Z,21.57
2019-03-19T14:34:56.501Z,27.77
2019-03-19T14:37:27.365Z,24.17
2019-03-19T14:39:58.236Z,32.37
2019-03-19T14:42:28.629Z,23.50
2019-03-19T14:44:58.990Z,21.30
2019-03-19T14:47:29.712Z,23.07
2019-03-19T14:50:00.480Z,20.20
2019-03-19T14:52:31.269Z,26.30
2019-03-19T14:55:01.748Z,20.77
2019-03-19T14:57:32.889Z,23.17
2019-03-19T15:00:03.888Z,22.07
2019-03-19T15:02:35.335Z,28.67
2019-03-19T15:05:06.623Z,29.30
2019-03-19T15:07:37.293Z,25.93
2019-03-19T15:10:10.794Z,28.23
2019-03-19T15:12:41.306Z,24.73
2019-03-19T15:15:12.770Z,31.90
2019-03-19T15:17:43.617Z,27.13
2019-03-19T15:20:19.044Z,30.73
2019-03-19T15:22:49.528Z,25.90
2019-03-19T15:25:20.045Z,28.03
2019-03-19T15:27:50.443Z,27.47
2019-03-19T15:30:21.309Z,24.00
2019-03-19T15:32:52.447Z,29.67
2019-03-19T15:35:23.056Z,20.37
2019-03-19T15:37:53.474Z,25.53
2019-03-19T15:40:23.937Z,24.37
2019-03-19T15:42:54.301Z,22.90
2019-03-19T15:45:25.034Z,22.50
2019-03-19T15:47:57.442Z,20.47
2019-03-19T15:50:27.845Z,23.90
2019-03-19T15:52:58.216Z,27.83
2019-03-19T15:55:28.623Z,26.30
2019-03-19T15:57:59.073Z,24.13
2019-03-19T16:00:30.212Z,25.33
2019-03-19T16:03:00.890Z,29.87
2019-03-19T16:05:31.568Z,31.60
2019-03-19T16:08:01.948Z,22.37
2019-03-19T16:10:32.318Z,29.17
2019-03-19T16:13:02.841Z,21.17
2019-03-19T16:15:33.246Z,20.97
2019-03-19T16:18:05.859Z,29.10
2019-03-19T16:20:36.209Z,31.17
2019-03-19T16:23:06.581Z,28.17
2019-03-19T16:25:36.947Z,45.33
2019-03-19T16:28:07.374Z,52.73
2019-03-19T16:30:37.828Z,37.77
2019-03-19T16:33:08.182Z,33.30
2019-03-19T16:35:38.507Z,32.93
2019-03-19T16:38:08.848Z,43.47
2019-03-19T16:40:39.162Z,33.50
2019-03-19T16:43:09.532Z,44.67
2019-03-19T16:45:39.863Z,34.90
2019-03-19T16:48:10.216Z,46.63
2019-03-19T16:50:40.738Z,44.47
2019-03-19T16:53:11.089Z,43.90
2019-03-19T16:55:41.390Z,42.83
2019-03-19T16:58:12.186Z,46.37
2019-03-19T17:00:42.754Z,39.37
2019-03-19T17:03:13.187Z,39.77
2019-03-19T17:05:43.526Z,40.53
2019-03-19T17:08:13.852Z,42.53
2019-03-19T17:10:44.197Z,45.33
2019-03-19T17:13:14.624Z,42.67
2019-03-19T17:15:45.174Z,50.97
2019-03-19T17:18:15.610Z,37.90
2019-03-19T17:20:45.916Z,38.27
2019-03-19T17:23:16.347Z,45.60
2019-03-19T17:25:46.816Z,48.77
2019-03-19T17:28:22.558Z,55.03
2019-03-19T17:30:49.294Z,41.47
2019-03-19T17:33:19.762Z,45.93
2019-03-19T17:35:50.198Z,37.70
2019-03-19T17:38:20.634Z,44.57
2019-03-19T17:40:52.212Z,52.20
2019-03-19T17:43:23.156Z,44.83
2019-03-19T17:45:53.546Z,43.70
2019-03-19T17:48:23.914Z,39.13
2019-03-19T17:50:55.673Z,48.97
2019-03-19T17:53:26.937Z,47.67
2019-03-19T17:55:57.314Z,46.20
2019-03-19T17:58:27.725Z,39.67
2019-03-19T18:00:58.198Z,44.63
2019-03-19T18:03:28.716Z,39.47
2019-03-19T18:05:59.104Z,40.03
2019-03-19T18:08:29.528Z,44.80
2019-03-19T18:10:59.910Z,36.53
2019-03-19T18:13:30.412Z,37.43
2019-03-19T18:16:00.845Z,53.40
2019-03-19T18:18:31.199Z,51.80
2019-03-19T18:21:02.788Z,48.87
2019-03-19T18:23:33.164Z,43.40
2019-03-19T18:26:03.850Z,48.37
2019-03-19T18:28:34.523Z,51.70
2019-03-19T18:31:04.867Z,50.10
2019-03-19T18:33:35.466Z,44.60
2019-03-19T18:36:06.014Z,42.27
2019-03-19T18:38:36.413Z,43.03
2019-03-19T18:41:07.307Z,51.87
2019-03-19T18:43:37.796Z,40.47
2019-03-19T18:46:08.173Z,50.47
2019-03-19T18:48:38.640Z,48.80
2019-03-19T18:51:09.037Z,44.10
2019-03-19T18:53:39.592Z,51.73
2019-03-19T18:56:10.136Z,46.23
2019-03-19T18:58:40.679Z,43.27
2019-03-19T19:01:11.094Z,49.37
2019-03-19T19:03:41.403Z,45.37
2019-03-19T19:06:12.039Z,56.30
2019-03-19T19:08:42.487Z,48.13
2019-03-19T19:11:15.856Z,47.10
2019-03-19T19:13:46.554Z,41.17
2019-03-19T19:16:17.128Z,53.60
2019-03-19T19:18:47.708Z,44.23
2019-03-19T19:21:18.492Z,43.87
2019-03-19T19:23:48.895Z,46.47
2019-03-19T19:26:19.275Z,54.27
2019-03-19T19:28:49.712Z,48.13
2019-03-19T19:31:20.089Z,53.17
2019-03-19T19:33:54.351Z,52.87
2019-03-19T19:36:26.603Z,54.37
2019-03-19T19:38:56.967Z,59.43
2019-03-19T19:41:27.415Z,62.10
2019-03-19T19:43:57.860Z,69.87
2019-03-19T19:46:28.327Z,60.83
2019-03-19T19:48:58.783Z,73.37
2019-03-19T19:51:29.545Z,67.53
2019-03-19T19:53:59.997Z,55.60
2019-03-19T19:56:30.459Z,54.70
2019-03-19T19:59:01.265Z,59.07
2019-03-19T20:01:31.667Z,57.83
2019-03-19T20:04:02.428Z,54.33
2019-03-19T20:06:32.830Z,66.00
2019-03-19T20:09:03.816Z,61.57
2019-03-19T20:11:34.951Z,62.17
2019-03-19T20:14:05.439Z,68.80
2019-03-19T20:16:36.013Z,60.10
2019-03-19T20:19:06.449Z,66.57
2019-03-19T20:21:37.275Z,69.20
2019-03-19T20:24:08.087Z,72.13
2019-03-19T20:26:38.477Z,86.40
2019-03-19T20:29:09.051Z,79.43
2019-03-19T20:31:39.516Z,72.33
2019-03-19T20:34:10.225Z,71.77
2019-03-19T20:36:40.723Z,72.70
2019-03-19T20:39:11.189Z,67.40
2019-03-19T20:41:41.571Z,77.37
2019-03-19T20:44:11.994Z,68.50
2019-03-19T20:46:42.753Z,76.07
2019-03-19T20:49:13.083Z,70.80
2019-03-19T20:51:43.543Z,76.87
2019-03-19T20:54:15.770Z,65.37
2019-03-19T20:56:46.157Z,72.50
2019-03-19T20:59:17.794Z,81.63
2019-03-19T21:01:48.175Z,72.17
2019-03-19T21:04:18.758Z,77.67
2019-03-19T21:06:50.452Z,72.27
2019-03-19T21:09:21.334Z,70.07
2019-03-19T21:11:53.379Z,73.20
2019-03-19T21:14:25.248Z,67.90
2019-03-19T21:16:57.493Z,70.80
2019-03-19T21:19:28.165Z,118.37
2019-03-19T21:22:00.542Z,100.73
2019-03-19T21:24:30.679Z,79.67
2019-03-19T21:27:01.466Z,65.73
2019-03-19T21:29:31.844Z,83.23
2019-03-19T21:32:02.297Z,76.27
2019-03-19T21:34:32.799Z,81.73
2019-03-19T21:37:03.149Z,69.43
2019-03-19T21:39:33.478Z,85.70
2019-03-19T21:42:03.888Z,69.20
2019-03-19T21:44:34.268Z,73.07
2019-03-19T21:47:04.763Z,64.33
2019-03-19T21:49:35.110Z,69.53
2019-03-19T21:52:05.754Z,67.83
2019-03-19T21:54:36.317Z,76.27
2019-03-19T21:57:07.012Z,70.87
2019-03-19T21:59:37.407Z,74.93
2019-03-19T22:02:07.803Z,75.73
2019-03-19T22:04:38.137Z,73.93
2019-03-19T22:07:08.691Z,75.57
2019-03-19T22:09:39.053Z,75.73
2019-03-19T22:12:09.547Z,70.97
2019-03-19T22:14:40.010Z,72.63
2019-03-19T22:17:10.437Z,66.07
2019-03-19T22:19:40.996Z,87.30
2019-03-19T22:22:11.443Z,71.70
2019-03-19T22:24:41.779Z,67.27
2019-03-19T22:27:12.210Z,78.03
2019-03-19T22:29:42.587Z,71.80
2019-03-19T22:32:13.129Z,67.97
2019-03-19T22:34:43.805Z,78.33
2019-03-19T22:37:15.343Z,73.00
2019-03-19T22:39:45.715Z,72.70
2019-03-19T22:42:16.098Z,63.97
2019-03-19T22:44:46.446Z,79.10
2019-03-19T22:47:16.825Z,69.47
2019-03-19T22:49:47.277Z,96.43
2019-03-19T22:52:17.809Z,84.47
2019-03-19T22:54:48.311Z,97.90
2019-03-19T22:57:20.511Z,99.00
2019-03-19T22:59:50.904Z,92.23
2019-03-19T23:02:21.600Z,91.73
2019-03-19T23:04:51.977Z,88.47
2019-03-19T23:07:22.327Z,94.90
2019-03-19T23:09:52.705Z,98.97
2019-03-19T23:12:24.789Z,82.70
2019-03-19T23:14:55.135Z,82.60
2019-03-19T23:17:25.526Z,97.00
2019-03-19T23:19:57.487Z,89.60
2019-03-19T23:22:28.838Z,98.20
2019-03-19T23:24:59.591Z,83.83
2019-03-19T23:27:30.209Z,95.90
2019-03-19T23:30:00.639Z,91.60
2019-03-19T23:32:32.587Z,87.17
2019-03-19T23:35:02.974Z,93.77
2019-03-19T23:37:33.514Z,88.40
2019-03-19T23:40:04.139Z,99.97
2019-03-19T23:42:34.544Z,92.13
2019-03-19T23:45:05.694Z,90.33
2019-03-19T23:47:36.123Z,97.03
2019-03-19T23:50:08.341Z,90.43
2019-03-19T23:52:38.942Z,103.63
2019-03-19T23:55:10.216Z,105.40
2019-03-19T23:57:40.762Z,99.23
